Time;durP1;ratioP1;P1;durP2;ratioP2;P2;SDS_P1;SDS_P2;PMS_P1;PMS_P2;Temp;Humidity;BMP_temperature;BMP_pressure;BME280_temperature;BME280_humidity;BME280_pressure;Samples;Min_cycle;Max_cycle;Signal;HPM_P1;HPM_P2
2021/04/26 00:00:24;;;;;;;27.02;19.00;;;2.30;97.70;;;;;;2090034;28;20088;-74
2021/04/26 00:01:26;;;;;;;25.17;18.13;;;2.30;97.70;;;;;;2089310;28;20025;-75
2021/04/26 00:02:27;;;;;;;26.65;18.58;;;2.30;97.80;;;;;;2080870;28;20116;-76
2021/04/26 00:03:28;;;;;;;27.23;18.85;;;2.30;97.80;;;;;;2081620;28;20018;-74
2021/04/26 00:04:34;;;;;;;25.27;17.83;;;2.30;97.90;;;;;;2082122;28;20025;-75
2021/04/26 00:05:35;;;;;;;26.00;18.33;;;2.20;97.80;;;;;;2089137;28;20036;-75
2021/04/26 00:06:36;;;;;;;26.23;18.55;;;2.30;97.90;;;;;;2088961;28;20028;-75
2021/04/26 00:07:37;;;;;;;24.00;17.95;;;2.30;98.00;;;;;;2089231;28;20082;-74
2021/04/26 00:08:38;;;;;;;27.00;18.90;;;2.30;98.00;;;;;;2090032;28;20045;-74
2021/04/26 00:09:41;;;;;;;25.65;18.58;;;2.30;98.00;;;;;;2080945;28;20034;-74
2021/04/26 00:10:45;;;;;;;24.10;17.90;;;2.30;97.90;;;;;;2080934;28;20029;-75
2021/04/26 00:11:46;;;;;;;24.30;18.02;;;2.30;97.90;;;;;;2083290;28;20038;-74
2021/04/26 00:12:49;;;;;;;25.65;18.58;;;2.20;97.80;;;;;;2089392;28;20028;-74
2021/04/26 00:13:50;;;;;;;25.77;18.38;;;2.20;97.90;;;;;;2089158;28;20020;-74
2021/04/26 00:14:54;;;;;;;27.83;18.58;;;2.20;98.00;;;;;;2081294;28;20026;-74
2021/04/26 00:15:58;;;;;;;27.88;19.10;;;2.20;97.90;;;;;;2089158;28;20044;-74
2021/04/26 00:16:58;;;;;;;24.23;17.90;;;2.20;97.90;;;;;;2089165;28;20049;-74
2021/04/26 00:17:59;;;;;;;25.17;18.65;;;2.20;98.00;;;;;;2080798;28;20029;-74
2021/04/26 00:19:02;;;;;;;25.50;18.40;;;2.20;98.00;;;;;;2089828;28;20143;-73
2021/04/26 00:20:10;;;;;;;27.75;18.98;;;2.20;98.00;;;;;;2081797;28;20025;-73
2021/04/26 00:21:11;;;;;;;27.35;19.15;;;2.20;98.00;;;;;;2084414;28;20029;-73
2021/04/26 00:22:14;;;;;;;25.88;19.52;;;2.20;98.00;;;;;;2086674;28;20492;-74
2021/04/26 00:23:15;;;;;;;26.30;19.20;;;2.10;97.90;;;;;;2089678;28;20088;-75
2021/04/26 00:24:16;;;;;;;24.58;18.13;;;2.10;98.00;;;;;;2089194;28;20400;-74
2021/04/26 00:25:20;;;;;;;25.02;18.63;;;2.10;98.00;;;;;;2088832;28;20036;-73
2021/04/26 00:26:21;;;;;;;26.25;18.92;;;2.10;98.00;;;;;;2074337;28;20145;-74
2021/04/26 00:27:22;;;;;;;25.98;18.83;;;2.10;98.00;;;;;;2087888;28;20029;-74
2021/04/26 00:28:22;;;;;;;24.75;18.20;;;2.10;98.00;;;;;;2089795;28;20127;-74
2021/04/26 00:29:25;;;;;;;27.10;19.00;;;2.10;98.00;;;;;;2080745;28;20421;-74
2021/04/26 00:30:27;;;;;;;27.17;18.88;;;2.00;98.00;;;;;;2081079;28;20053;-74
2021/04/26 00:31:27;;;;;;;24.27;18.67;;;2.00;98.10;;;;;;2089310;28;20056;-75
2021/04/26 00:32:28;;;;;;;25.65;19.17;;;2.00;98.10;;;;;;2082679;28;20037;-74
2021/04/26 00:33:32;;;;;;;25.90;18.95;;;2.00;98.20;;;;;;2089361;28;20035;-76
2021/04/26 00:34:32;;;;;;;28.80;19.15;;;2.00;98.20;;;;;;2089354;28;20036;-75
2021/04/26 00:35:33;;;;;;;27.92;20.42;;;2.00;98.20;;;;;;2081872;28;20041;-74
2021/04/26 00:36:34;;;;;;;29.08;20.33;;;1.90;98.20;;;;;;2081015;28;20017;-73
2021/04/26 00:37:35;;;;;;;29.85;19.90;;;1.90;98.30;;;;;;2081569;28;20029;-73
2021/04/26 00:38:35;;;;;;;29.23;20.17;;;2.00;98.30;;;;;;2089832;28;20112;-74
2021/04/26 00:39:36;;;;;;;27.98;20.15;;;2.00;98.40;;;;;;2089939;28;20100;-75
2021/04/26 00:40:37;;;;;;;27.45;19.45;;;1.90;98.40;;;;;;2080273;28;20057;-74
2021/04/26 00:41:38;;;;;;;26.02;19.17;;;2.00;98.40;;;;;;2072753;28;20053;-74
2021/04/26 00:42:40;;;;;;;26.60;19.23;;;1.90;98.20;;;;;;2082739;28;20412;-74
2021/04/26 00:43:43;;;;;;;25.77;18.98;;;1.90;98.30;;;;;;2088235;28;20025;-74
2021/04/26 00:44:44;;;;;;;27.95;19.30;;;1.90;98.30;;;;;;2074130;28;20029;-74
2021/04/26 00:45:45;;;;;;;27.48;19.55;;;1.90;98.20;;;;;;2075841;28;20108;-73
2021/04/26 00:46:46;;;;;;;25.85;18.27;;;1.90;98.30;;;;;;2081286;28;20034;-75
2021/04/26 00:47:48;;;;;;;25.48;18.70;;;1.90;98.30;;;;;;2082165;28;20033;-74
2021/04/26 00:48:50;;;;;;;25.30;18.17;;;2.00;98.20;;;;;;2082859;28;20026;-75
2021/04/26 00:49:50;;;;;;;27.17;18.80;;;1.90;98.20;;;;;;2076097;28;20547;-75
2021/04/26 00:50:51;;;;;;;28.48;18.80;;;1.90;98.10;;;;;;2087355;28;20060;-74
2021/04/26 00:51:52;;;;;;;26.60;19.25;;;1.90;98.10;;;;;;2084913;28;20040;-74
2021/04/26 00:52:54;;;;;;;27.20;18.90;;;1.90;98.00;;;;;;2088949;28;20025;-75
2021/04/26 00:53:54;;;;;;;25.38;19.10;;;1.90;98.00;;;;;;2085322;28;20014;-75
2021/04/26 00:54:56;;;;;;;26.75;18.88;;;1.80;98.00;;;;;;2075017;28;20050;-76
2021/04/26 00:55:56;;;;;;;26.48;18.50;;;1.80;98.10;;;;;;2076689;28;20045;-75
2021/04/26 00:56:57;;;;;;;25.50;17.88;;;1.80;98.10;;;;;;2079745;28;20042;-74
2021/04/26 00:57:59;;;;;;;26.67;18.33;;;1.80;98.20;;;;;;2077108;28;20021;-74
2021/04/26 00:59:02;;;;;;;24.55;17.95;;;1.80;98.20;;;;;;2089590;28;20013;-73
2021/04/26 01:00:06;;;;;;;26.48;18.65;;;1.70;98.40;;;;;;2085145;28;20030;-74
2021/04/26 01:01:08;;;;;;;24.05;17.63;;;1.70;98.20;;;;;;2085194;28;20120;-73
2021/04/26 01:02:08;;;;;;;27.85;19.08;;;1.70;98.30;;;;;;2084442;28;20388;-74
2021/04/26 01:03:10;;;;;;;28.23;19.77;;;1.70;98.40;;;;;;2081644;28;20021;-75
2021/04/26 01:04:36;;;;;;;33.53;21.08;;;1.70;98.30;;;;;;2081019;28;20041;-73
2021/04/26 01:05:39;;;;;;;29.95;19.90;;;1.70;98.30;;;;;;2080678;28;20767;-73
2021/04/26 01:06:41;;;;;;;30.60;20.05;;;1.70;98.30;;;;;;2072054;28;20314;-73
2021/04/26 01:07:43;;;;;;;29.75;19.83;;;1.70;98.30;;;;;;2072575;28;20036;-75
2021/04/26 01:08:46;;;;;;;28.60;20.00;;;1.60;98.20;;;;;;2082171;28;20118;-74
2021/04/26 01:10:04;;;;;;;28.70;19.63;;;1.60;98.10;;;;;;2088942;28;20029;-73
2021/04/26 01:11:06;;;;;;;30.15;19.42;;;1.60;98.10;;;;;;2084480;28;20029;-74
2021/04/26 01:12:31;;;;;;;28.13;19.10;;;1.60;98.00;;;;;;2089015;28;20025;-75
2021/04/26 01:13:40;;;;;;;28.40;19.48;;;1.60;98.10;;;;;;2084328;28;20082;-75
2021/04/26 01:14:54;;;;;;;33.00;21.08;;;1.60;98.00;;;;;;2081645;28;20092;-74
2021/04/26 01:15:59;;;;;;;33.00;21.63;;;1.50;97.90;;;;;;2082144;28;20164;-74
2021/04/26 01:17:07;;;;;;;29.75;20.63;;;1.50;97.90;;;;;;2081113;28;20026;-75
2021/04/26 01:18:31;;;;;;;28.95;19.85;;;1.50;97.90;;;;;;2089204;28;20045;-74
2021/04/26 01:20:12;;;;;;;30.27;19.95;;;1.50;98.00;;;;;;2089245;28;20009;-74
2021/04/26 01:21:52;;;;;;;27.98;18.65;;;1.50;97.90;;;;;;2083707;28;20032;-74
2021/04/26 01:23:31;;;;;;;29.05;19.65;;;1.50;97.90;;;;;;2079352;28;20025;-74
2021/04/26 01:29:17;;;;;;;26.52;18.67;;;1.40;98.00;;;;;;2078094;28;20050;-69
2021/04/26 01:30:21;;;;;;;29.38;19.60;;;1.30;98.10;;;;;;2075959;28;20121;-71
2021/04/26 01:32:15;;;;;;;28.00;19.55;;;1.30;98.10;;;;;;2067719;28;20026;-68
2021/04/26 01:33:19;;;;;;;27.20;19.58;;;1.30;98.10;;;;;;2059473;28;20037;-68
2021/04/26 01:34:28;;;;;;;30.23;20.55;;;1.30;98.20;;;;;;2056998;28;20015;-69
2021/04/26 01:35:37;;;;;;;29.05;20.30;;;1.30;98.20;;;;;;2070420;28;20484;-69
2021/04/26 01:36:38;;;;;;;27.10;19.73;;;1.20;98.20;;;;;;2070326;28;20084;-70
2021/04/26 01:37:42;;;;;;;27.80;19.65;;;1.30;98.20;;;;;;2064340;28;20030;-70
2021/04/26 01:38:45;;;;;;;28.70;19.58;;;1.20;98.30;;;;;;2072281;28;20030;-69
2021/04/26 01:39:48;;;;;;;25.08;18.67;;;1.20;98.30;;;;;;2080444;28;20100;-68
2021/04/26 01:40:52;;;;;;;27.13;19.63;;;1.20;98.60;;;;;;2064755;28;20436;-72
2021/04/26 01:41:55;;;;;;;27.98;19.77;;;1.20;98.30;;;;;;2080948;28;20029;-69
2021/04/26 01:42:58;;;;;;;25.88;19.63;;;1.20;98.30;;;;;;2080914;28;20025;-69
2021/04/26 01:43:59;;;;;;;28.45;19.23;;;1.20;98.20;;;;;;2080889;28;20571;-70
2021/04/26 01:45:07;;;;;;;28.27;19.88;;;1.10;98.10;;;;;;2080286;28;20029;-69
2021/04/26 01:46:10;;;;;;;28.58;20.02;;;1.10;98.20;;;;;;2072988;28;20037;-69
2021/04/26 01:47:12;;;;;;;28.65;20.02;;;1.00;98.20;;;;;;2071997;28;20373;-69
2021/04/26 01:48:14;;;;;;;28.40;20.05;;;1.00;98.30;;;;;;2072157;28;20026;-70
2021/04/26 01:49:19;;;;;;;32.88;21.90;;;1.00;98.40;;;;;;2072749;28;20021;-69
2021/04/26 01:50:21;;;;;;;33.38;22.52;;;0.90;98.50;;;;;;2064019;28;20572;-69
2021/04/26 01:51:23;;;;;;;34.88;22.52;;;0.90;98.50;;;;;;2064174;28;20146;-70
2021/04/26 01:52:24;;;;;;;33.88;22.23;;;0.90;98.70;;;;;;2080193;28;20422;-69
2021/04/26 01:53:26;;;;;;;33.17;22.15;;;0.90;98.60;;;;;;2080598;28;20476;-69
2021/04/26 01:54:29;;;;;;;31.35;22.40;;;0.90;98.80;;;;;;2080496;28;20028;-70
2021/04/26 01:55:31;;;;;;;32.42;22.65;;;0.90;98.90;;;;;;2080747;28;20022;-69
2021/04/26 01:56:35;;;;;;;34.72;22.83;;;0.90;98.90;;;;;;2079463;28;20160;-69
2021/04/26 01:57:40;;;;;;;36.42;24.25;;;0.90;99.00;;;;;;2067574;28;20056;-69
2021/04/26 01:58:46;;;;;;;35.20;23.98;;;0.90;99.00;;;;;;2071500;28;20080;-69
2021/04/26 01:59:48;;;;;;;30.73;22.27;;;0.90;99.10;;;;;;2072588;28;20033;-70
2021/04/26 02:00:57;;;;;;;31.15;21.75;;;0.80;99.10;;;;;;2072840;28;20034;-69
2021/04/26 02:01:59;;;;;;;32.45;21.95;;;0.80;99.20;;;;;;2080013;28;20071;-69
2021/04/26 02:03:01;;;;;;;30.15;21.40;;;0.80;99.30;;;;;;2071736;28;20030;-69
2021/04/26 02:04:06;;;;;;;38.33;24.30;;;0.80;99.70;;;;;;2064789;28;20030;-69
2021/04/26 02:05:30;;;;;;;33.65;23.27;;;0.80;99.60;;;;;;2064342;28;20077;-70
2021/04/26 02:06:39;;;;;;;31.02;22.00;;;0.80;99.60;;;;;;2079863;28;20013;-69
2021/04/26 02:08:00;;;;;;;31.08;21.38;;;0.80;99.60;;;;;;2067002;28;20113;-70
2021/04/26 02:09:06;;;;;;;29.08;20.80;;;0.80;99.70;;;;;;2071786;28;20022;-69
2021/04/26 02:10:12;;;;;;;29.30;21.77;;;0.80;99.70;;;;;;2073298;28;20369;-68
2021/04/26 02:11:13;;;;;;;35.22;22.35;;;0.80;99.70;;;;;;2088135;28;20078;-69
2021/04/26 02:12:17;;;;;;;32.70;23.10;;;0.80;99.80;;;;;;2079932;28;20068;-69
2021/04/26 02:13:26;;;;;;;32.25;23.25;;;0.80;99.90;;;;;;2080150;28;20025;-70
2021/04/26 02:14:31;;;;;;;36.25;24.15;;;0.80;99.90;;;;;;2080445;28;20105;-69
2021/04/26 02:15:32;;;;;;;33.40;23.67;;;0.80;99.90;;;;;;2080354;28;20083;-71
2021/04/26 02:16:34;;;;;;;36.40;24.70;;;0.90;99.80;;;;;;2071572;28;20022;-70
2021/04/26 02:17:36;;;;;;;33.85;23.33;;;0.90;99.80;;;;;;2064325;28;20048;-69
2021/04/26 02:18:37;;;;;;;32.53;22.65;;;0.90;99.90;;;;;;2072278;28;20034;-69
2021/04/26 02:19:37;;;;;;;30.10;22.23;;;0.90;99.80;;;;;;2063820;28;20053;-69
2021/04/26 02:20:38;;;;;;;30.60;21.63;;;0.90;99.80;;;;;;2055727;28;20106;-69
2021/04/26 02:21:40;;;;;;;31.02;22.38;;;0.90;99.80;;;;;;2071714;28;20425;-69
2021/04/26 02:22:42;;;;;;;33.17;22.75;;;0.90;99.80;;;;;;2080511;28;20083;-69
2021/04/26 02:23:43;;;;;;;28.13;21.27;;;0.90;99.80;;;;;;2080468;28;20701;-69
2021/04/26 02:24:43;;;;;;;29.02;21.30;;;0.90;99.70;;;;;;2079876;28;20030;-70
2021/04/26 02:25:44;;;;;;;28.05;20.20;;;0.90;99.80;;;;;;2080515;28;20044;-70
2021/04/26 02:26:45;;;;;;;31.08;21.60;;;0.90;99.90;;;;;;2080198;28;20033;-69
2021/04/26 02:27:47;;;;;;;30.05;21.90;;;0.90;99.90;;;;;;2066514;28;20437;-69
2021/04/26 02:28:48;;;;;;;30.90;22.05;;;0.90;99.90;;;;;;2079673;28;20163;-70
2021/04/26 02:29:49;;;;;;;30.15;21.05;;;0.90;99.90;;;;;;2063602;28;20069;-70
2021/04/26 02:30:54;;;;;;;30.83;21.35;;;0.90;99.90;;;;;;2071637;28;20032;-69
2021/04/26 02:31:59;;;;;;;29.48;20.98;;;0.90;99.80;;;;;;2079805;28;20058;-68
2021/04/26 02:33:15;;;;;;;26.92;20.02;;;0.90;99.80;;;;;;2080281;28;20033;-68
2021/04/26 02:34:42;;;;;;;30.40;20.60;;;0.90;99.80;;;;;;2066969;28;20061;-71
2021/04/26 02:35:49;;;;;;;30.55;20.58;;;0.90;99.80;;;;;;2069858;28;20029;-69
2021/04/26 02:36:59;;;;;;;31.02;21.77;;;0.90;99.90;;;;;;2057033;28;20497;-69
2021/04/26 02:38:05;;;;;;;28.88;21.25;;;1.00;99.90;;;;;;2080577;28;20025;-69
2021/04/26 02:39:08;;;;;;;29.30;20.63;;;1.00;99.90;;;;;;2080461;28;20034;-70
2021/04/26 02:40:13;;;;;;;28.98;21.02;;;0.90;99.80;;;;;;2079749;28;20018;-69
2021/04/26 02:41:24;;;;;;;;;;;1.00;99.90;;;;;;2073477;28;20440;-70
2021/04/26 02:42:31;;;;;;;28.38;19.73;;;1.00;99.70;;;;;;2072503;28;19924;-71
2021/04/26 02:43:37;;;;;;;28.02;20.20;;;1.00;99.80;;;;;;2071842;28;20113;-70
2021/04/26 02:44:42;;;;;;;28.50;20.55;;;1.00;99.70;;;;;;2079849;28;20020;-69
2021/04/26 02:45:56;;;;;;;28.50;21.10;;;1.00;99.70;;;;;;2080409;28;20072;-69
2021/04/26 02:47:08;;;;;;;30.20;21.48;;;1.00;99.80;;;;;;2071202;28;20809;-69
2021/04/26 02:48:11;;;;;;;29.25;20.17;;;1.00;99.90;;;;;;2075025;28;20073;-69
2021/04/26 02:49:16;;;;;;;26.80;20.05;;;1.00;99.80;;;;;;2079810;28;20025;-70
2021/04/26 02:50:21;;;;;;;29.08;20.85;;;1.00;99.70;;;;;;2079785;28;20026;-69
2021/04/26 02:51:33;;;;;;;29.85;20.67;;;1.00;99.80;;;;;;2079680;28;20120;-69
2021/04/26 02:52:35;;;;;;;30.45;21.88;;;1.00;99.70;;;;;;2079973;28;20028;-69
2021/04/26 02:53:37;;;;;;;31.70;22.25;;;1.00;99.80;;;;;;2079792;28;20029;-69
2021/04/26 02:54:38;;;;;;;32.42;21.77;;;1.00;99.80;;;;;;2079799;28;20025;-70
2021/04/26 02:55:41;;;;;;;33.83;22.17;;;1.00;99.70;;;;;;2079767;28;20033;-70
2021/04/26 02:56:43;;;;;;;33.75;22.92;;;1.00;99.80;;;;;;2071643;28;20026;-71
2021/04/26 02:57:46;;;;;;;30.23;22.00;;;1.00;99.80;;;;;;2066246;28;20476;-70
2021/04/26 02:58:51;;;;;;;33.50;23.02;;;1.00;99.60;;;;;;2072001;28;20618;-70
2021/04/26 03:00:01;;;;;;;32.13;22.42;;;1.00;99.70;;;;;;2066334;28;20530;-70
2021/04/26 03:01:05;;;;;;;32.45;22.90;;;0.90;99.70;;;;;;2079883;28;20040;-70
2021/04/26 03:02:15;;;;;;;29.98;21.30;;;1.00;99.90;;;;;;2079840;28;20116;-70
2021/04/26 03:03:36;;;;;;;30.13;20.75;;;1.00;99.90;;;;;;2079970;28;20079;-70
2021/04/26 03:04:40;;;;;;;27.00;19.98;;;1.00;99.80;;;;;;2080323;28;20076;-69
2021/04/26 03:05:42;;;;;;;28.77;20.60;;;1.00;99.70;;;;;;2081547;28;20033;-69
2021/04/26 03:06:46;;;;;;;31.40;20.40;;;1.00;99.70;;;;;;2081892;28;20022;-68
2021/04/26 03:07:56;;;;;;;31.38;21.42;;;0.90;99.60;;;;;;2067323;28;20401;-70
2021/04/26 03:08:57;;;;;;;31.50;21.63;;;0.90;99.70;;;;;;2073308;28;20026;-70
2021/04/26 03:10:00;;;;;;;32.67;21.60;;;0.90;99.70;;;;;;2081389;28;20099;-70
2021/04/26 03:11:06;;;;;;;32.05;21.85;;;0.90;99.70;;;;;;2081666;28;20660;-70
2021/04/26 03:12:08;;;;;;;30.77;21.85;;;0.90;99.70;;;;;;2081347;28;20032;-70
2021/04/26 03:13:16;;;;;;;31.92;21.85;;;0.90;99.70;;;;;;2074101;28;20025;-71
2021/04/26 03:14:18;;;;;;;34.22;22.35;;;0.90;99.80;;;;;;2073625;28;20037;-69
2021/04/26 03:15:25;;;;;;;31.60;21.90;;;0.90;99.80;;;;;;2081306;28;20025;-70
2021/04/26 03:16:27;;;;;;;32.00;21.90;;;0.90;99.70;;;;;;2081664;28;20125;-70
2021/04/26 03:17:29;;;;;;;34.75;23.00;;;0.90;99.80;;;;;;2081786;28;20029;-70
2021/04/26 03:18:39;;;;;;;30.98;21.77;;;0.90;99.80;;;;;;2066393;28;20068;-70
2021/04/26 03:19:42;;;;;;;33.55;22.63;;;0.80;99.80;;;;;;2075136;28;20102;-71
2021/04/26 03:20:44;;;;;;;30.42;21.15;;;0.80;99.80;;;;;;2089565;28;20064;-70
2021/04/26 03:21:54;;;;;;;30.55;21.23;;;0.80;99.90;;;;;;2081263;28;20035;-70
2021/04/26 03:22:56;;;;;;;33.42;21.70;;;0.80;99.90;;;;;;2081435;28;20042;-70
2021/04/26 03:23:56;;;;;;;31.65;21.83;;;0.80;99.90;;;;;;2081443;28;20033;-70
2021/04/26 03:24:57;;;;;;;31.98;22.15;;;0.80;99.90;;;;;;2081457;28;20056;-70
2021/04/26 03:25:59;;;;;;;31.25;21.70;;;0.80;99.90;;;;;;2081167;28;20484;-70
2021/04/26 03:27:01;;;;;;;35.70;22.92;;;0.80;99.90;;;;;;2072853;28;20029;-70
2021/04/26 03:28:04;;;;;;;31.30;21.13;;;0.90;99.90;;;;;;2067066;28;20028;-69
2021/04/26 03:29:17;;;;;;;32.50;22.45;;;0.90;99.90;;;;;;2081349;28;20073;-70
2021/04/26 03:30:21;;;;;;;33.47;21.77;;;0.90;99.90;;;;;;2081940;28;20806;-70
2021/04/26 03:31:35;;;;;;;31.42;21.50;;;0.90;99.90;;;;;;2081107;28;20092;-71
2021/04/26 03:32:48;;;;;;;32.50;22.27;;;0.90;99.90;;;;;;2074718;28;20384;-70
2021/04/26 03:33:49;;;;;;;31.63;21.75;;;0.90;99.90;;;;;;2074844;28;20034;-71
2021/04/26 03:34:50;;;;;;;32.83;21.50;;;0.90;99.80;;;;;;2081143;28;20083;-69
2021/04/26 03:35:54;;;;;;;33.72;21.90;;;0.90;99.80;;;;;;2073240;28;20465;-70
2021/04/26 03:36:56;;;;;;;34.00;21.67;;;0.90;99.80;;;;;;2073058;28;20432;-69
2021/04/26 03:37:59;;;;;;;33.80;21.98;;;0.80;99.80;;;;;;2081360;28;20036;-71
2021/04/26 03:39:00;;;;;;;32.42;21.90;;;0.80;99.80;;;;;;2081208;28;20044;-69
2021/04/26 03:40:01;;;;;;;35.17;22.73;;;0.80;99.80;;;;;;2081300;28;20060;-71
2021/04/26 03:41:02;;;;;;;33.65;22.27;;;0.80;99.90;;;;;;2081810;28;20039;-70
2021/04/26 03:42:05;;;;;;;38.13;24.15;;;0.90;99.90;;;;;;2081785;28;20033;-70
2021/04/26 03:43:09;;;;;;;37.05;22.40;;;0.90;99.90;;;;;;2080962;28;20112;-71
2021/04/26 03:44:27;;;;;;;34.42;22.48;;;0.90;99.90;;;;;;2075375;28;20044;-71
2021/04/26 03:45:49;;;;;;;38.10;23.40;;;0.90;99.90;;;;;;2064364;28;20453;-70
2021/04/26 03:47:08;;;;;;;34.22;22.42;;;0.90;99.70;;;;;;2070570;28;20030;-69
2021/04/26 03:48:27;;;;;;;35.13;22.08;;;0.90;99.80;;;;;;2081822;28;20049;-70
2021/04/26 03:49:39;;;;;;;37.20;22.73;;;0.90;99.80;;;;;;2081058;28;20059;-70
2021/04/26 03:50:58;;;;;;;36.17;23.08;;;0.80;99.50;;;;;;2061804;28;20034;-70
2021/04/26 03:52:30;;;;;;;35.40;23.08;;;0.90;99.90;;;;;;2081415;28;20033;-70
2021/04/26 03:54:09;;;;;;;36.75;22.60;;;0.90;99.90;;;;;;2070771;28;20080;-70
2021/04/26 03:55:15;;;;;;;35.72;23.13;;;0.90;99.90;;;;;;2081625;28;20113;-70
2021/04/26 03:56:16;;;;;;;36.67;23.17;;;0.90;99.90;;;;;;2080789;28;20570;-69
2021/04/26 03:57:17;;;;;;;34.40;22.20;;;0.90;99.90;;;;;;2070985;28;20095;-69
2021/04/26 03:58:17;;;;;;;35.88;23.17;;;1.00;99.90;;;;;;2076741;28;20029;-70
2021/04/26 03:59:18;;;;;;;34.78;22.38;;;1.00;99.90;;;;;;2080943;28;20380;-70
2021/04/26 04:00:23;;;;;;;36.50;22.63;;;1.00;99.90;;;;;;2073069;28;20061;-69
2021/04/26 04:01:23;;;;;;;41.38;23.42;;;1.00;99.90;;;;;;2081080;28;20112;-69
2021/04/26 04:02:28;;;;;;;34.25;22.38;;;1.00;99.90;;;;;;2080816;28;20551;-68
2021/04/26 04:03:29;;;;;;;34.80;22.42;;;1.00;99.90;;;;;;2073223;28;20065;-69
2021/04/26 04:04:32;;;;;;;36.45;23.27;;;1.10;99.90;;;;;;2072916;28;20400;-70
2021/04/26 04:05:55;;;;;;;36.00;22.15;;;1.10;99.90;;;;;;2080982;28;20456;-69
2021/04/26 04:06:56;;;;;;;36.95;23.17;;;1.10;99.90;;;;;;2081020;28;20041;-71
2021/04/26 04:08:16;;;;;;;37.30;23.65;;;1.20;99.90;;;;;;2044322;29;20511;-69
2021/04/26 04:09:36;;;;;;;37.65;21.92;;;1.20;99.80;;;;;;2079560;28;20033;-70
2021/04/26 04:10:46;;;;;;;34.67;21.55;;;1.20;99.70;;;;;;2080984;28;20026;-70
2021/04/26 04:12:13;;;;;;;35.25;22.35;;;1.20;99.60;;;;;;2071261;28;20475;-69
2021/04/26 04:13:20;;;;;;;39.00;22.52;;;1.20;99.50;;;;;;2080858;28;20067;-69
2021/04/26 04:14:20;;;;;;;35.58;22.52;;;1.20;99.40;;;;;;2080870;28;20080;-69
2021/04/26 04:15:27;;;;;;;31.70;20.77;;;1.20;99.30;;;;;;2080786;28;20021;-69
2021/04/26 04:16:28;;;;;;;33.63;21.15;;;1.20;99.30;;;;;;2079429;28;20028;-69
2021/04/26 04:17:28;;;;;;;34.50;21.88;;;1.20;99.20;;;;;;2080810;28;20025;-70
2021/04/26 04:18:29;;;;;;;32.30;21.00;;;1.20;99.30;;;;;;2072597;28;20026;-69
2021/04/26 04:19:30;;;;;;;33.10;20.92;;;1.20;99.40;;;;;;2072763;28;20527;-71
2021/04/26 04:20:32;;;;;;;32.92;21.00;;;1.20;99.20;;;;;;2080889;28;20136;-70
2021/04/26 04:21:34;;;;;;;38.05;22.27;;;1.20;99.20;;;;;;2072625;28;20413;-69
2021/04/26 04:22:34;;;;;;;34.85;21.65;;;1.20;99.10;;;;;;2080906;28;20053;-70
2021/04/26 04:23:37;;;;;;;33.53;21.75;;;1.20;99.10;;;;;;2081393;28;20366;-68
2021/04/26 04:24:38;;;;;;;32.25;21.10;;;1.20;99.10;;;;;;2081593;28;20033;-70
2021/04/26 04:25:39;;;;;;;36.17;22.13;;;1.20;99.00;;;;;;2081077;28;20388;-70
2021/04/26 04:26:41;;;;;;;34.70;21.80;;;1.20;99.10;;;;;;2064384;28;20061;-69
2021/04/26 04:27:44;;;;;;;36.47;22.45;;;1.20;99.00;;;;;;2055153;28;20589;-69
2021/04/26 04:28:45;;;;;;;33.90;21.58;;;1.20;99.00;;;;;;2079697;28;20080;-70
2021/04/26 04:30:07;;;;;;;37.72;22.70;;;1.20;99.00;;;;;;2074884;28;20064;-69
2021/04/26 04:31:26;;;;;;;34.90;21.98;;;1.20;99.00;;;;;;2071312;28;20090;-69
2021/04/26 04:32:42;;;;;;;35.17;22.48;;;1.20;98.80;;;;;;2076015;28;20033;-70
2021/04/26 04:34:01;;;;;;;35.70;22.58;;;1.20;98.80;;;;;;2081175;28;20511;-70
2021/04/26 04:35:20;;;;;;;34.95;21.60;;;1.20;98.80;;;;;;2081486;28;20029;-69
2021/04/26 04:36:41;;;;;;;35.38;22.20;;;1.30;98.90;;;;;;2081090;28;20758;-71
2021/04/26 04:38:02;;;;;;;36.88;22.08;;;1.30;98.80;;;;;;2074949;28;20041;-69
2021/04/26 04:39:22;;;;;;;33.38;21.02;;;1.30;98.70;;;;;;2081680;28;20022;-69
2021/04/26 04:40:41;;;;;;;35.13;21.50;;;1.30;98.60;;;;;;2081229;28;20516;-69
2021/04/26 04:41:53;;;;;;;33.95;21.10;;;1.40;98.70;;;;;;2070422;28;20049;-69
2021/04/26 04:42:54;;;;;;;34.17;21.05;;;1.40;98.60;;;;;;2073192;28;20095;-69
2021/04/26 04:43:59;;;;;;;35.83;22.95;;;1.40;98.50;;;;;;2065804;28;20076;-69
2021/04/26 04:45:00;;;;;;;35.03;21.75;;;1.50;98.50;;;;;;2067261;28;20026;-70
2021/04/26 04:46:01;;;;;;;36.00;22.33;;;1.50;98.40;;;;;;2075528;28;20022;-69
2021/04/26 04:47:27;;;;;;;32.40;20.80;;;1.50;98.40;;;;;;2074739;28;20053;-70
2021/04/26 04:48:29;;;;;;;32.65;20.70;;;1.50;98.30;;;;;;2077198;28;20021;-69
2021/04/26 04:49:30;;;;;;;33.10;21.35;;;1.60;98.40;;;;;;2072430;28;20025;-69
2021/04/26 04:50:32;;;;;;;31.60;20.33;;;1.60;98.20;;;;;;2056750;28;20027;-71
2021/04/26 04:51:35;;;;;;;35.60;22.17;;;1.60;98.10;;;;;;2072732;28;20018;-70
2021/04/26 04:52:40;;;;;;;37.47;21.95;;;1.70;98.00;;;;;;2073997;28;20064;-71
2021/04/26 04:53:41;;;;;;;32.67;21.17;;;1.60;97.80;;;;;;2079890;28;20057;-71
2021/04/26 04:54:41;;;;;;;35.92;22.17;;;1.70;97.80;;;;;;2080838;28;20029;-71
2021/04/26 04:55:43;;;;;;;35.88;21.92;;;1.70;97.80;;;;;;2072875;28;20492;-69
2021/04/26 04:56:44;;;;;;;37.90;23.17;;;1.80;97.70;;;;;;2071942;28;20496;-70
2021/04/26 04:57:45;;;;;;;37.45;23.55;;;1.80;97.60;;;;;;2066868;28;20038;-71
2021/04/26 04:58:46;;;;;;;37.22;23.17;;;1.80;97.40;;;;;;2080183;28;20075;-71
2021/04/26 04:59:46;;;;;;;37.13;23.33;;;1.90;97.30;;;;;;2080597;28;20112;-70
2021/04/26 05:01:19;;;;;;;35.58;22.60;;;1.90;97.20;;;;;;2040149;29;20114;-69
2021/04/26 05:02:39;;;;;;;33.17;21.02;;;1.90;96.80;;;;;;2079923;28;20041;-70
2021/04/26 05:04:05;;;;;;;33.25;21.85;;;1.90;96.80;;;;;;2062866;28;20133;-70
2021/04/26 05:05:32;;;;;;;33.65;20.60;;;1.90;96.70;;;;;;2055749;28;20051;-71
2021/04/26 05:06:56;;;;;;;34.67;21.20;;;2.00;96.90;;;;;;2063419;28;20188;-71
2021/04/26 05:08:15;;;;;;;33.80;20.58;;;2.10;96.90;;;;;;2082911;28;20037;-72
2021/04/26 05:09:39;;;;;;;33.00;20.85;;;2.10;96.60;;;;;;2067229;28;20752;-72
2021/04/26 05:10:52;;;;;;;33.00;20.10;;;2.20;96.80;;;;;;2067694;28;20073;-72
2021/04/26 05:12:21;;;;;;;33.17;20.65;;;2.40;96.30;;;;;;2082785;28;20403;-72
2021/04/26 05:13:40;;;;;;;32.10;20.92;;;2.50;96.10;;;;;;2083767;28;20037;-72
2021/04/26 05:14:42;;;;;;;38.83;21.98;;;2.50;95.70;;;;;;2066694;28;20396;-72
2021/04/26 05:15:43;;;;;;;34.20;21.60;;;2.50;95.50;;;;;;2072801;28;20025;-71
2021/04/26 05:16:47;;;;;;;35.35;21.83;;;2.60;95.40;;;;;;2080710;28;20025;-72
2021/04/26 05:17:48;;;;;;;34.20;21.85;;;2.70;95.30;;;;;;2081068;28;20109;-72
2021/04/26 05:18:48;;;;;;;35.58;22.13;;;2.70;94.90;;;;;;2072107;28;20487;-71
2021/04/26 05:19:49;;;;;;;34.80;22.02;;;2.70;94.80;;;;;;2056235;28;20424;-70
2021/04/26 05:20:50;;;;;;;33.70;21.17;;;2.70;94.70;;;;;;2080266;28;20025;-72
2021/04/26 05:21:51;;;;;;;34.35;20.17;;;2.90;94.90;;;;;;2080569;28;20029;-70
2021/04/26 05:22:54;;;;;;;34.55;20.23;;;3.00;94.90;;;;;;2080293;28;20029;-71
2021/04/26 05:23:55;;;;;;;32.95;20.00;;;3.20;94.70;;;;;;2072424;28;20718;-71
2021/04/26 05:24:56;;;;;;;27.85;18.70;;;3.50;94.40;;;;;;2072311;28;20396;-72
2021/04/26 05:25:58;;;;;;;29.42;19.20;;;3.70;93.80;;;;;;2080216;28;20029;-71
2021/04/26 05:26:59;;;;;;;28.65;19.10;;;3.80;93.10;;;;;;2080576;28;20021;-72
2021/04/26 05:28:00;;;;;;;28.38;18.92;;;3.90;92.40;;;;;;2074689;28;20033;-71
2021/04/26 05:29:01;;;;;;;28.95;18.70;;;4.00;91.70;;;;;;2080223;28;20022;-71
2021/04/26 05:30:07;;;;;;;28.90;19.25;;;4.00;91.50;;;;;;2072174;28;20044;-71
2021/04/26 05:31:08;;;;;;;25.65;18.17;;;4.20;91.50;;;;;;2072652;28;20145;-69
2021/04/26 05:32:08;;;;;;;26.75;17.80;;;4.40;91.70;;;;;;2080335;28;20150;-71
2021/04/26 05:33:10;;;;;;;25.88;17.55;;;4.80;91.00;;;;;;2072054;28;20386;-72
2021/04/26 05:34:29;;;;;;;26.05;17.30;;;5.10;90.30;;;;;;2074742;28;20041;-71
2021/04/26 05:35:30;;;;;;;24.67;16.73;;;5.50;88.60;;;;;;2071988;28;20150;-71
2021/04/26 05:36:30;;;;;;;26.08;17.13;;;5.90;86.90;;;;;;2071783;28;20022;-72
2021/04/26 05:37:38;;;;;;;25.02;16.88;;;6.20;85.00;;;;;;2081051;28;20033;-71
2021/04/26 05:38:38;;;;;;;25.48;16.35;;;6.60;82.00;;;;;;2080256;28;20488;-72
2021/04/26 05:39:42;;;;;;;23.95;16.58;;;6.90;79.60;;;;;;2080270;28;20013;-72
2021/04/26 05:40:47;;;;;;;25.20;16.73;;;7.20;77.90;;;;;;2080229;28;20056;-73
2021/04/26 05:41:48;;;;;;;24.70;16.65;;;7.40;77.10;;;;;;2072668;28;20092;-72
2021/04/26 05:42:48;;;;;;;25.27;16.58;;;7.70;75.20;;;;;;2080450;28;20540;-68
2021/04/26 05:43:49;;;;;;;22.83;16.02;;;7.90;73.40;;;;;;2071908;28;20041;-70
2021/04/26 05:44:50;;;;;;;21.05;15.10;;;8.00;71.60;;;;;;2072212;28;20037;-72